createdAt,value
2023-04-14T00:02:11.878Z,45.24
2023-04-14T00:04:39.046Z,45.65
2023-04-14T00:07:06.427Z,45.81
2023-04-14T00:09:35.985Z,45.92
2023-04-14T00:12:02.951Z,46.18
2023-04-14T00:14:29.961Z,46.16
2023-04-14T00:16:56.966Z,46.29
2023-04-14T00:19:23.897Z,46.66
2023-04-14T00:21:53.510Z,46.80
2023-04-14T00:24:20.396Z,47.02
2023-04-14T00:26:48.328Z,47.11
2023-04-14T00:29:15.422Z,46.89
2023-04-14T00:31:42.467Z,47.22
2023-04-14T00:34:09.550Z,47.16
2023-04-14T00:36:37.110Z,47.23
2023-04-14T00:39:04.907Z,47.32
2023-04-14T00:41:35.479Z,47.55
2023-04-14T00:44:03.004Z,47.67
2023-04-14T00:46:30.338Z,47.66
2023-04-14T00:48:57.909Z,47.74
2023-04-14T00:51:25.185Z,47.84
2023-04-14T00:53:53.719Z,48.24
2023-04-14T00:56:21.369Z,48.04
2023-04-14T00:58:52.222Z,48.08
2023-04-14T01:01:19.277Z,48.25
2023-04-14T01:03:46.900Z,48.22
2023-04-14T01:06:14.068Z,48.25
2023-04-14T01:08:43.396Z,48.33
2023-04-14T01:11:20.036Z,48.61
2023-04-14T01:14:03.847Z,48.48
2023-04-14T01:16:36.167Z,48.54
2023-04-14T01:19:15.611Z,48.51
2023-04-14T01:21:46.686Z,48.71
2023-04-14T01:24:45.553Z,48.84
2023-04-14T01:27:31.445Z,48.63
2023-04-14T01:30:17.757Z,48.62
2023-04-14T01:32:46.198Z,48.59
2023-04-14T01:35:21.040Z,48.59
2023-04-14T01:37:50.000Z,48.56
2023-04-14T01:40:17.779Z,48.46
2023-04-14T01:42:47.966Z,48.56
2023-04-14T01:45:27.352Z,48.65
2023-04-14T01:47:55.509Z,48.48
2023-04-14T01:50:25.606Z,48.54
2023-04-14T01:52:54.568Z,48.65
2023-04-14T01:55:23.997Z,48.62
2023-04-14T01:57:53.453Z,48.59
2023-04-14T02:00:21.533Z,48.55
2023-04-14T02:02:52.814Z,48.95
2023-04-14T02:05:20.614Z,48.99
2023-04-14T02:07:48.805Z,48.95
2023-04-14T02:10:20.795Z,49.26
2023-04-14T02:12:49.755Z,49.28
2023-04-14T02:15:18.802Z,49.23
2023-04-14T02:17:51.833Z,49.32
2023-04-14T02:20:21.327Z,49.38
2023-04-14T02:22:48.448Z,49.48
2023-04-14T02:25:15.448Z,49.67
2023-04-14T02:27:52.364Z,49.63
2023-04-14T02:30:22.935Z,49.56
2023-04-14T02:32:54.585Z,49.35
2023-04-14T02:35:44.164Z,49.67
2023-04-14T02:38:18.769Z,49.76
2023-04-14T02:40:46.854Z,49.63
2023-04-14T02:43:20.837Z,49.82
2023-04-14T02:45:50.980Z,49.84
2023-04-14T02:48:18.943Z,49.73
2023-04-14T02:50:49.486Z,49.64
2023-04-14T02:53:22.441Z,49.71
2023-04-14T02:55:54.772Z,49.84
2023-04-14T02:58:22.319Z,49.85
2023-04-14T03:00:50.342Z,49.98
2023-04-14T03:03:18.831Z,50.02
2023-04-14T03:05:47.711Z,50.11
2023-04-14T03:08:16.863Z,49.91
2023-04-14T03:10:48.878Z,49.90
2023-04-14T03:13:18.868Z,49.79
2023-04-14T03:15:59.739Z,49.85
2023-04-14T03:18:31.328Z,49.73
2023-04-14T03:21:00.865Z,49.75
2023-04-14T03:23:29.143Z,49.73
2023-04-14T03:26:00.613Z,49.61
2023-04-14T03:28:30.553Z,49.37
2023-04-14T03:31:01.425Z,49.58
2023-04-14T03:33:36.906Z,49.36
2023-04-14T03:36:04.493Z,49.54
2023-04-14T03:38:33.553Z,49.65
2023-04-14T03:41:05.647Z,49.37
2023-04-14T03:43:33.645Z,49.35
2023-04-14T03:46:10.843Z,49.43
2023-04-14T03:48:49.892Z,49.24
2023-04-14T03:51:17.678Z,49.25
2023-04-14T03:53:49.445Z,49.29
2023-04-14T03:56:18.308Z,49.06
2023-04-14T03:58:47.954Z,49.12
2023-04-14T04:01:18.668Z,49.24
2023-04-14T04:03:46.693Z,48.98
2023-04-14T04:06:14.082Z,48.90
2023-04-14T04:08:41.776Z,48.98
2023-04-14T04:11:09.874Z,48.77
2023-04-14T04:13:40.073Z,49.06
2023-04-14T04:16:07.720Z,48.74
2023-04-14T04:18:38.677Z,48.71
2023-04-14T04:21:07.804Z,48.57
2023-04-14T04:23:37.637Z,48.48
2023-04-14T04:26:04.690Z,48.30
2023-04-14T04:28:39.110Z,48.12
2023-04-14T04:31:06.823Z,47.99
2023-04-14T04:33:34.647Z,47.86
2023-04-14T04:36:03.167Z,47.44
2023-04-14T04:38:36.198Z,47.54
2023-04-14T04:41:03.490Z,47.48
2023-04-14T04:43:34.606Z,47.39
2023-04-14T04:46:04.698Z,47.35
2023-04-14T04:48:31.791Z,47.10
2023-04-14T04:50:58.778Z,47.11
2023-04-14T04:53:26.015Z,47.21
2023-04-14T04:55:53.406Z,46.67
2023-04-14T04:58:23.805Z,46.33
2023-04-14T05:00:51.237Z,46.07
2023-04-14T05:03:51.776Z,45.84
2023-04-14T05:06:18.778Z,45.87
2023-04-14T05:09:04.979Z,45.71
2023-04-14T05:11:32.993Z,45.31
2023-04-14T05:13:59.876Z,45.45
2023-04-14T05:16:28.330Z,45.20
2023-04-14T05:18:55.535Z,44.85
2023-04-14T05:21:22.553Z,44.45
2023-04-14T05:23:50.063Z,44.45
2023-04-14T05:28:49.248Z,44.45
2023-04-14T05:31:16.585Z,44.12
2023-04-14T05:33:49.204Z,43.98
2023-04-14T05:36:16.475Z,43.63
2023-04-14T05:38:43.548Z,43.19
2023-04-14T05:41:16.639Z,43.01
2023-04-14T05:43:43.738Z,42.76
2023-04-14T05:46:11.069Z,42.81
2023-04-14T05:48:38.348Z,42.26
2023-04-14T05:51:16.514Z,41.92
2023-04-14T05:53:53.993Z,41.79
2023-04-14T05:56:21.142Z,41.43
2023-04-14T05:58:48.312Z,40.96
2023-04-14T06:01:15.683Z,40.78
2023-04-14T06:03:42.986Z,40.84
2023-04-14T06:06:10.230Z,40.44
2023-04-14T06:08:39.880Z,40.50
2023-04-14T06:11:06.897Z,40.20
2023-04-14T06:13:35.692Z,39.85
2023-04-14T06:16:03.657Z,39.26
2023-04-14T06:18:30.874Z,39.29
2023-04-14T06:20:57.894Z,39.16
2023-04-14T06:23:26.884Z,39.02
2023-04-14T06:25:55.200Z,38.67
2023-04-14T06:28:24.332Z,38.79
2023-04-14T06:30:51.503Z,38.53
2023-04-14T06:33:18.732Z,38.00
2023-04-14T06:35:45.693Z,37.62
2023-04-14T06:38:14.135Z,37.43
2023-04-14T06:40:41.299Z,37.63
2023-04-14T06:43:11.138Z,37.47
2023-04-14T06:45:38.322Z,37.24
2023-04-14T06:48:05.920Z,37.48
2023-04-14T06:50:33.029Z,37.53
2023-04-14T06:53:00.309Z,37.69
2023-04-14T06:55:27.382Z,37.72
2023-04-14T06:57:54.556Z,37.54
2023-04-14T07:00:22.043Z,37.62
2023-04-14T07:02:49.291Z,37.40
2023-04-14T07:05:17.491Z,37.38
2023-04-14T07:07:44.502Z,36.73
2023-04-14T07:10:12.739Z,36.27
2023-04-14T07:12:58.946Z,35.57
2023-04-14T07:15:26.308Z,35.30
2023-04-14T07:17:53.610Z,35.34
2023-04-14T07:20:20.756Z,34.63
2023-04-14T07:22:47.952Z,34.58
2023-04-14T07:25:15.048Z,34.51
2023-04-14T07:27:49.898Z,33.91
2023-04-14T07:30:30.285Z,33.58
2023-04-14T07:32:57.867Z,33.53
2023-04-14T07:35:25.996Z,33.51
2023-04-14T07:37:53.110Z,33.07
2023-04-14T07:40:20.499Z,33.25
2023-04-14T07:42:49.430Z,33.03
2023-04-14T07:45:19.129Z,33.17
2023-04-14T07:47:46.379Z,32.67
2023-04-14T07:50:13.445Z,32.47
2023-04-14T07:52:40.570Z,32.24
2023-04-14T07:55:07.997Z,32.13
2023-04-14T07:57:35.540Z,31.97
2023-04-14T08:00:02.699Z,31.47
2023-04-14T08:02:40.968Z,31.09
2023-04-14T08:05:09.613Z,31.21
2023-04-14T08:07:37.110Z,30.64
2023-04-14T08:10:04.317Z,30.33
2023-04-14T08:12:32.160Z,30.29
2023-04-14T08:14:59.319Z,29.64
2023-04-14T08:17:27.420Z,29.75
2023-04-14T08:19:54.444Z,29.26
2023-04-14T08:22:21.706Z,28.95
2023-04-14T08:24:52.002Z,28.55
2023-04-14T08:27:20.066Z,28.59
2023-04-14T08:29:51.445Z,27.92
2023-04-14T08:32:18.549Z,27.82
2023-04-14T08:35:37.567Z,27.72
2023-04-14T08:37:32.838Z,26.65
2023-04-14T08:40:00.756Z,27.10
2023-04-14T08:42:27.853Z,26.79
2023-04-14T08:45:17.036Z,26.72
2023-04-14T08:47:46.095Z,26.63
2023-04-14T08:50:18.894Z,26.14
2023-04-14T08:52:46.530Z,25.76
2023-04-14T08:55:14.285Z,25.41
2023-04-14T08:57:42.725Z,25.41
2023-04-14T09:00:10.770Z,24.99
2023-04-14T09:02:40.740Z,24.96
2023-04-14T09:05:09.057Z,24.86
2023-04-14T09:07:36.904Z,25.10
2023-04-14T09:10:04.749Z,24.47
2023-04-14T09:12:32.708Z,23.86
2023-04-14T09:14:59.684Z,23.51
2023-04-14T09:17:28.078Z,23.64
2023-04-14T09:20:34.707Z,23.82
2023-04-14T09:22:43.485Z,23.44
2023-04-14T09:25:10.994Z,22.97
2023-04-14T09:27:42.903Z,23.35
2023-04-14T09:30:29.220Z,22.89
2023-04-14T09:32:57.139Z,22.69
2023-04-14T09:35:43.541Z,22.55
2023-04-14T09:38:11.090Z,22.57
2023-04-14T09:40:39.305Z,22.19
2023-04-14T09:43:06.779Z,22.20
2023-04-14T09:45:44.876Z,22.53
2023-04-14T09:48:13.654Z,22.16
2023-04-14T09:51:10.095Z,22.06
2023-04-14T09:53:39.564Z,21.94
2023-04-14T09:56:13.651Z,21.86
2023-04-14T09:58:43.049Z,21.79
2023-04-14T10:01:17.581Z,21.74
2023-04-14T10:03:47.149Z,21.66
2023-04-14T10:06:24.146Z,21.48
2023-04-14T10:08:53.254Z,21.32
2023-04-14T10:11:26.163Z,20.58
2023-04-14T10:14:05.349Z,20.93
2023-04-14T10:16:34.092Z,20.73
2023-04-14T10:19:02.313Z,20.55
2023-04-14T10:21:29.870Z,20.63
2023-04-14T10:23:59.218Z,20.72
2023-04-14T10:26:26.765Z,20.84
2023-04-14T10:28:57.856Z,20.77
2023-04-14T10:31:47.989Z,20.28
2023-04-14T10:34:18.315Z,19.87
2023-04-14T10:37:14.161Z,19.86
2023-04-14T10:39:44.900Z,19.69
2023-04-14T10:42:11.927Z,19.45
2023-04-14T10:44:39.478Z,19.02
2023-04-14T10:47:09.353Z,18.70
2023-04-14T10:50:00.321Z,18.65
2023-04-14T10:52:30.250Z,18.70
2023-04-14T10:55:01.410Z,18.57
2023-04-14T10:57:29.811Z,18.75
2023-04-14T10:59:59.048Z,18.38
2023-04-14T11:02:55.440Z,18.17
2023-04-14T11:05:23.347Z,17.63
2023-04-14T11:07:56.148Z,17.65
2023-04-14T11:10:28.330Z,17.69
2023-04-14T11:13:17.742Z,17.68
2023-04-14T11:15:49.177Z,17.66
2023-04-14T11:18:21.462Z,17.62
2023-04-14T11:20:52.243Z,17.05
2023-04-14T11:23:27.167Z,16.95
2023-04-14T11:25:54.602Z,17.02
2023-04-14T11:28:50.423Z,17.29
2023-04-14T11:31:36.742Z,17.08
2023-04-14T11:34:23.372Z,16.94
2023-04-14T11:37:09.136Z,16.79
2023-04-14T11:39:36.673Z,16.91
2023-04-14T11:42:04.717Z,16.77
2023-04-14T11:44:32.020Z,16.58
2023-04-14T11:46:59.000Z,16.48
2023-04-14T11:49:40.300Z,16.23
2023-04-14T11:52:08.341Z,16.36
2023-04-14T11:54:37.271Z,16.04
2023-04-14T11:57:22.737Z,16.13
2023-04-14T12:00:08.750Z,15.76
2023-04-14T12:02:36.329Z,15.70
2023-04-14T12:05:04.052Z,15.77
2023-04-14T12:07:34.020Z,15.44
2023-04-14T12:10:07.619Z,15.03
2023-04-14T12:12:34.540Z,14.97
2023-04-14T12:15:01.965Z,15.05
2023-04-14T12:17:31.337Z,14.72
2023-04-14T12:19:58.401Z,14.82
2023-04-14T12:22:29.554Z,14.77
2023-04-14T12:24:57.276Z,14.44
2023-04-14T12:27:26.712Z,14.21
2023-04-14T12:29:53.784Z,14.24
2023-04-14T12:32:40.923Z,14.08
2023-04-14T12:35:26.824Z,13.86
2023-04-14T12:38:30.646Z,13.67
2023-04-14T12:41:25.530Z,13.42
2023-04-14T12:44:21.369Z,13.27
2023-04-14T12:47:07.362Z,13.02
2023-04-14T12:49:36.854Z,13.02
2023-04-14T12:52:05.810Z,12.99
2023-04-14T12:54:55.297Z,13.49
2023-04-14T12:57:22.622Z,13.45
2023-04-14T12:59:49.713Z,13.00
2023-04-14T13:02:36.569Z,12.80
2023-04-14T13:05:05.219Z,12.84
2023-04-14T13:07:33.180Z,12.61
2023-04-14T13:10:02.417Z,12.58
2023-04-14T13:12:31.200Z,12.30
2023-04-14T13:14:58.390Z,12.71
2023-04-14T13:17:26.172Z,12.98
2023-04-14T13:19:54.210Z,12.63
2023-04-14T13:22:21.325Z,12.70
2023-04-14T13:24:50.039Z,12.69
2023-04-14T13:27:38.701Z,12.85
2023-04-14T13:30:06.611Z,12.77
2023-04-14T13:32:34.448Z,12.66
2023-04-14T13:35:01.963Z,12.57
2023-04-14T13:37:30.127Z,12.73
2023-04-14T13:40:21.920Z,12.34
2023-04-14T13:43:09.078Z,12.60
2023-04-14T13:45:40.034Z,12.50
2023-04-14T13:48:08.175Z,12.83
2023-04-14T13:50:54.565Z,13.09
2023-04-14T13:53:40.105Z,13.06
2023-04-14T13:56:11.039Z,13.30
2023-04-14T13:58:38.586Z,13.73
2023-04-14T14:01:15.028Z,13.42
2023-04-14T14:03:42.298Z,13.23
2023-04-14T14:06:09.788Z,13.05
2023-04-14T14:08:38.086Z,12.55
2023-04-14T14:11:11.706Z,12.37
2023-04-14T14:13:40.939Z,13.32
2023-04-14T14:19:00.827Z,13.40
2023-04-14T14:21:46.823Z,13.64
2023-04-14T14:24:32.633Z,13.74
2023-04-14T14:26:59.747Z,13.81
2023-04-14T14:29:27.373Z,13.67
2023-04-14T14:31:54.464Z,13.69
2023-04-14T14:34:21.483Z,13.69
2023-04-14T14:36:48.574Z,13.91
2023-04-14T14:39:37.150Z,13.83
2023-04-14T14:42:04.180Z,14.26
2023-04-14T14:44:34.422Z,14.72
2023-04-14T14:47:02.072Z,15.61
2023-04-14T14:49:29.229Z,16.30
2023-04-14T14:51:56.385Z,16.95
2023-04-14T14:54:26.149Z,17.36
2023-04-14T14:56:53.074Z,17.63
2023-04-14T14:59:24.430Z,17.90
2023-04-14T15:01:53.564Z,17.97
2023-04-14T15:04:39.775Z,18.42
2023-04-14T15:07:07.784Z,18.70
2023-04-14T15:09:34.681Z,18.83
2023-04-14T15:12:04.761Z,18.94
2023-04-14T15:14:32.701Z,18.95
2023-04-14T15:16:59.722Z,19.10
2023-04-14T15:19:31.940Z,18.94
2023-04-14T15:22:21.790Z,18.74
2023-04-14T15:24:48.860Z,18.99
2023-04-14T15:27:18.602Z,19.41
2023-04-14T15:29:45.964Z,19.49
2023-04-14T15:32:12.950Z,19.82
2023-04-14T15:34:40.052Z,19.80
2023-04-14T15:37:09.657Z,20.01
2023-04-14T15:39:55.344Z,20.11
2023-04-14T15:42:41.283Z,20.17
2023-04-14T15:45:08.939Z,20.17
2023-04-14T15:47:35.882Z,20.33
2023-04-14T15:50:09.888Z,20.63
2023-04-14T15:52:41.007Z,20.72
2023-04-14T15:55:09.569Z,20.96
2023-04-14T15:57:55.208Z,21.03
2023-04-14T16:00:40.642Z,21.07
2023-04-14T16:03:07.891Z,21.45
2023-04-14T16:05:53.311Z,21.65
2023-04-14T16:08:20.384Z,21.61
2023-04-14T16:10:57.448Z,21.36
2023-04-14T16:13:24.541Z,21.31
2023-04-14T16:15:51.617Z,21.06
2023-04-14T16:18:18.746Z,21.50
2023-04-14T16:20:46.741Z,21.46
2023-04-14T16:23:32.122Z,21.57
2023-04-14T16:26:00.120Z,21.88
2023-04-14T16:28:46.259Z,21.69
2023-04-14T16:31:14.483Z,21.95
2023-04-14T16:34:00.418Z,22.11
2023-04-14T16:36:28.000Z,22.28
2023-04-14T16:38:58.130Z,22.07
2023-04-14T16:41:25.229Z,22.16
2023-04-14T16:43:52.467Z,21.76
2023-04-14T16:46:19.421Z,21.94
2023-04-14T16:49:05.611Z,22.25
2023-04-14T16:51:33.137Z,22.28
2023-04-14T16:54:00.719Z,22.31
2023-04-14T16:56:29.187Z,22.44
2023-04-14T16:59:14.816Z,22.50
2023-04-14T17:02:02.046Z,22.65
2023-04-14T17:04:29.596Z,22.61
2023-04-14T17:06:56.881Z,22.48
2023-04-14T17:09:24.130Z,22.76
2023-04-14T17:11:52.149Z,22.52
2023-04-14T17:14:19.852Z,22.68
2023-04-14T17:16:47.095Z,22.46
2023-04-14T17:19:14.662Z,22.39
2023-04-14T17:21:41.801Z,22.59
2023-04-14T17:24:27.729Z,22.73
2023-04-14T17:26:55.842Z,22.71
2023-04-14T17:29:25.815Z,22.73
2023-04-14T17:31:53.283Z,22.79
2023-04-14T17:34:20.759Z,22.76
2023-04-14T17:36:52.031Z,23.08
2023-04-14T17:39:22.449Z,22.95
2023-04-14T17:41:49.531Z,22.96
2023-04-14T17:44:16.769Z,23.14
2023-04-14T17:46:46.820Z,23.31
2023-04-14T17:49:35.373Z,23.66
2023-04-14T17:52:17.198Z,23.69
2023-04-14T17:54:45.893Z,23.72
2023-04-14T17:57:13.974Z,23.86
2023-04-14T17:59:41.839Z,23.71
2023-04-14T18:02:59.335Z,23.64
2023-04-14T18:05:26.480Z,24.05
2023-04-14T18:08:34.414Z,23.89
2023-04-14T18:11:01.640Z,24.42
2023-04-14T18:13:54.401Z,24.61
2023-04-14T18:16:30.948Z,24.62
2023-04-14T18:18:59.910Z,24.56
2023-04-14T18:21:46.947Z,24.83
2023-04-14T18:28:02.817Z,24.68
2023-04-14T18:29:52.510Z,24.58
2023-04-14T18:32:19.783Z,24.75
2023-04-14T18:34:49.319Z,24.72
2023-04-14T18:37:16.173Z,24.49
2023-04-14T18:39:50.898Z,24.64
2023-04-14T18:42:18.287Z,24.74
2023-04-14T18:44:45.864Z,24.45
2023-04-14T18:47:31.626Z,24.51
2023-04-14T18:50:20.448Z,24.46
2023-04-14T18:53:05.964Z,24.45
2023-04-14T18:55:41.778Z,24.56
2023-04-14T18:58:14.331Z,24.57
2023-04-14T19:00:43.181Z,24.58
2023-04-14T19:03:11.341Z,24.77
2023-04-14T19:05:38.435Z,24.91
2023-04-14T19:08:06.303Z,25.05
2023-04-14T19:10:54.896Z,25.25
2023-04-14T19:13:22.319Z,25.13
2023-04-14T19:15:52.763Z,25.20
2023-04-14T19:18:20.455Z,25.13
2023-04-14T19:20:48.645Z,25.25
2023-04-14T19:23:15.649Z,25.04
2023-04-14T19:25:42.837Z,25.22
2023-04-14T19:28:16.711Z,25.30
2023-04-14T19:30:45.908Z,25.26
2023-04-14T19:33:16.056Z,25.38
2023-04-14T19:35:46.045Z,25.44
2023-04-14T19:38:13.144Z,25.80
2023-04-14T19:40:51.119Z,25.59
2023-04-14T19:43:23.639Z,25.30
2023-04-14T19:45:51.601Z,25.58
2023-04-14T19:48:23.355Z,25.81
2023-04-14T19:50:52.206Z,26.12
2023-04-14T19:53:20.180Z,25.97
2023-04-14T19:55:51.371Z,25.99
2023-04-14T19:58:21.833Z,25.88
2023-04-14T20:00:51.699Z,25.92
2023-04-14T20:03:19.651Z,26.13
2023-04-14T20:05:55.005Z,26.01
2023-04-14T20:08:22.889Z,25.99
2023-04-14T20:10:54.337Z,26.10
2023-04-14T20:13:22.768Z,25.96
2023-04-14T20:15:50.828Z,26.09
2023-04-14T20:18:18.083Z,26.36
2023-04-14T20:20:49.201Z,26.34
2023-04-14T20:23:16.145Z,26.45
2023-04-14T20:25:44.085Z,26.13
2023-04-14T20:28:11.190Z,26.03
2023-04-14T20:30:43.180Z,26.05
2023-04-14T20:33:10.635Z,26.16
2023-04-14T20:35:39.786Z,26.21
2023-04-14T20:38:07.664Z,26.41
2023-04-14T20:40:37.825Z,26.10
2023-04-14T20:43:06.107Z,26.43
2023-04-14T20:45:34.108Z,26.34
2023-04-14T20:48:04.053Z,26.55
2023-04-14T20:50:31.063Z,26.48
2023-04-14T20:52:58.601Z,26.42
2023-04-14T20:55:26.244Z,26.30
2023-04-14T20:57:56.455Z,26.46
2023-04-14T21:00:29.204Z,26.72
2023-04-14T21:02:56.418Z,26.65
2023-04-14T21:05:25.705Z,26.57
2023-04-14T21:07:52.772Z,26.80
2023-04-14T21:10:19.689Z,26.75
2023-04-14T21:15:06.468Z,26.82
2023-04-14T21:15:55.615Z,26.89
2023-04-14T21:18:23.358Z,26.74
2023-04-14T21:20:51.407Z,27.05
2023-04-14T21:23:20.338Z,27.02
2023-04-14T21:25:48.147Z,27.13
2023-04-14T21:28:15.541Z,27.17
2023-04-14T21:30:42.814Z,27.08
2023-04-14T21:33:09.976Z,27.24
2023-04-14T21:35:37.836Z,27.33
2023-04-14T21:38:04.780Z,27.43
2023-04-14T21:40:31.650Z,27.34
2023-04-14T21:42:58.545Z,27.14
2023-04-14T21:45:26.734Z,27.44
2023-04-14T21:47:53.817Z,27.41
2023-04-14T21:50:20.939Z,27.56
2023-04-14T21:52:47.828Z,27.55
2023-04-14T21:55:14.906Z,27.86
2023-04-14T21:57:44.553Z,27.97
2023-04-14T22:00:17.895Z,28.00
2023-04-14T22:02:45.785Z,27.91
2023-04-14T22:05:13.930Z,28.23
2023-04-14T22:07:41.417Z,28.33
2023-04-14T22:10:08.800Z,28.46
2023-04-14T22:12:39.960Z,28.39
2023-04-14T22:15:10.806Z,28.41
2023-04-14T22:17:38.971Z,28.39
2023-04-14T22:20:06.634Z,28.50
2023-04-14T22:22:36.366Z,28.75
2023-04-14T22:25:04.249Z,28.70
2023-04-14T22:27:33.999Z,28.61
2023-04-14T22:30:04.038Z,28.46
2023-04-14T22:32:35.076Z,28.95
2023-04-14T22:35:02.089Z,28.69
2023-04-14T22:37:30.230Z,28.64
2023-04-14T22:39:57.175Z,28.72
2023-04-14T22:42:24.188Z,28.79
2023-04-14T22:44:53.069Z,28.98
2023-04-14T22:47:20.569Z,29.19
2023-04-14T22:49:47.532Z,29.17
2023-04-14T22:52:14.642Z,29.16
2023-04-14T22:54:41.763Z,29.13
2023-04-14T22:57:10.443Z,29.25
2023-04-14T22:59:37.844Z,29.34
2023-04-14T23:02:05.157Z,29.34
2023-04-14T23:04:32.702Z,29.37
2023-04-14T23:06:59.733Z,29.32
2023-04-14T23:09:32.460Z,29.59
2023-04-14T23:12:03.174Z,29.63
2023-04-14T23:14:32.546Z,29.53
2023-04-14T23:17:00.125Z,29.68
2023-04-14T23:19:27.539Z,29.82
2023-04-14T23:21:54.430Z,29.75
2023-04-14T23:24:22.536Z,29.96
2023-04-14T23:26:49.564Z,29.91
2023-04-14T23:29:20.166Z,29.95
2023-04-14T23:31:47.223Z,29.88
2023-04-14T23:34:14.302Z,29.94
2023-04-14T23:36:41.814Z,29.88
2023-04-14T23:39:08.713Z,30.04
2023-04-14T23:41:36.744Z,29.95
2023-04-14T23:44:03.787Z,30.18
2023-04-14T23:46:30.731Z,30.17
2023-04-14T23:49:02.913Z,30.21
2023-04-14T23:51:45.187Z,30.25
2023-04-14T23:54:12.217Z,30.48
2023-04-14T23:56:39.596Z,30.53
2023-04-14T23:59:06.614Z,30.66
